KDDC

Dodge City Regional Airport

Airport
ICAO code
KDDC
Summary
ICAO Region
NAM
ICAO Territory
Location

Dodge City, Kansas,

Elevation
2594 ft
Coordinates
37° 45' 42" N , 99° 57' 50" W
KCC
Airport CFIT
Altimeter Temperature Error Correction
Metar
Observation
KDDC 072252Z AUTO 04009KT 10SM CLR 11/M04 A3021 RMK AO2 SLP236 T01111039
Station
Dodge City, Dodge City Regional Airport
Date/Time
2023-02-07 23:52:00
Wind direction
40°
Wind speed
09 kts
Lowest cloud amount
n/a
Temperature
11.1°C
Dew point
-3.9°C
Humidity
34%
Weather condition
n/a

Description

Dodge City Regional Airport is a public-use airport located 6 km east of the central business district of Dodge City, in Ford County, Kansas.

Climatology

Dodge City lies at the intersection of North America's semi-arid (Köppen climate classification Bsk) and humid subtropical climate (Köppen climate classification Cfa) zones, with hot summers, highly variable winters, both warm and very cold periods, and low to moderate humidity and precipitation throughout the year

Airport map

Aerial View

SKYbrary Partners:

Safety knowledge contributed by: